createdAt,value
2023-01-17T00:02:24.300Z,97538.94
2023-01-17T00:05:20.851Z,97523.94
2023-01-17T00:08:20.713Z,97516.81
2023-01-17T00:10:58.392Z,97524.06
2023-01-17T00:13:42.655Z,97517.19
2023-01-17T00:16:20.944Z,97514.38
2023-01-17T00:19:20.780Z,97512.84
2023-01-17T00:22:14.695Z,97521.13
2023-01-17T00:25:05.505Z,97506.09
2023-01-17T00:27:49.031Z,97508.13
2023-01-17T00:30:24.399Z,97505.09
2023-01-17T00:33:00.036Z,97509.84
2023-01-17T00:35:32.589Z,97523.41
2023-01-17T00:38:15.229Z,97526.97
2023-01-17T00:40:56.382Z,97516.81
2023-01-17T00:43:58.010Z,97516.78
2023-01-17T00:46:49.711Z,97506.78
2023-01-17T00:49:51.445Z,97504.09
2023-01-17T00:52:49.447Z,97504.91
2023-01-17T00:55:49.651Z,97501.44
2023-01-17T00:58:43.165Z,97502.09
2023-01-17T01:01:37.177Z,97503.81
2023-01-17T01:04:31.289Z,97501.63
2023-01-17T01:07:37.598Z,97504.22
2023-01-17T01:10:34.650Z,97498.94
2023-01-17T01:13:19.985Z,97508.63
2023-01-17T01:16:11.033Z,97498.94
2023-01-17T01:19:11.448Z,97493.75
2023-01-17T01:22:05.348Z,97494.22
2023-01-17T01:25:09.990Z,97501.22
2023-01-17T01:28:04.182Z,97498.19
2023-01-17T01:31:00.675Z,97497.72
2023-01-17T01:33:45.512Z,97496.75
2023-01-17T01:36:36.739Z,97499.09
2023-01-17T01:39:32.399Z,97495.69
2023-01-17T01:42:36.990Z,97497.72
2023-01-17T01:45:49.864Z,97498.63
2023-01-17T01:48:38.434Z,97494.66
2023-01-17T01:51:32.224Z,97492.66
2023-01-17T01:54:21.025Z,97498.38
2023-01-17T01:57:11.012Z,97485.25
2023-01-17T02:00:00.199Z,97492.38
2023-01-17T02:02:39.547Z,97486.16
2023-01-17T02:05:16.240Z,97501.97
2023-01-17T02:08:00.379Z,97509.66
2023-01-17T02:10:44.818Z,97515.25
2023-01-17T02:13:28.766Z,97508.94
2023-01-17T02:16:35.094Z,97499.53
2023-01-17T02:19:32.089Z,97500.00
2023-01-17T02:22:46.387Z,97485.00
2023-01-17T02:25:50.734Z,97480.03
2023-01-17T02:28:49.765Z,97466.91
2023-01-17T02:31:59.529Z,97457.00
2023-01-17T02:35:03.313Z,97460.81
2023-01-17T02:38:06.003Z,97460.53
2023-01-17T02:40:48.979Z,97458.03
2023-01-17T02:43:35.993Z,97459.09
2023-01-17T02:46:09.911Z,97451.75
2023-01-17T02:48:54.565Z,97456.75
2023-01-17T02:52:06.324Z,97455.63
2023-01-17T02:55:01.403Z,97463.75
2023-01-17T02:57:58.671Z,97444.28
2023-01-17T03:00:45.931Z,97444.38
2023-01-17T03:03:51.418Z,97431.56
2023-01-17T03:06:43.278Z,97441.31
2023-01-17T03:09:25.220Z,97435.03
2023-01-17T03:12:03.529Z,97428.59
2023-01-17T03:14:47.755Z,97414.78
2023-01-17T03:17:31.582Z,97403.66
2023-01-17T03:20:36.168Z,97396.97
2023-01-17T03:23:31.876Z,97388.56
2023-01-17T03:26:07.989Z,97376.25
2023-01-17T03:28:48.834Z,97387.84
2023-01-17T03:31:29.099Z,97376.25
2023-01-17T03:34:15.374Z,97371.28
2023-01-17T03:36:55.678Z,97366.75
2023-01-17T03:39:33.323Z,97364.47
2023-01-17T03:42:14.013Z,97360.59
2023-01-17T03:44:54.724Z,97360.75
2023-01-17T03:47:37.535Z,97342.53
2023-01-17T03:50:15.671Z,97338.06
2023-01-17T03:53:04.033Z,97333.59
2023-01-17T03:55:39.219Z,97337.34
2023-01-17T03:58:27.859Z,97339.09
2023-01-17T04:01:05.531Z,97339.53
2023-01-17T04:03:46.885Z,97343.31
2023-01-17T04:06:45.385Z,97351.34
2023-01-17T04:09:25.762Z,97349.66
2023-01-17T04:12:15.134Z,97338.22
2023-01-17T04:14:55.302Z,97333.44
2023-01-17T04:17:45.681Z,97342.44
2023-01-17T04:20:38.488Z,97320.13
2023-01-17T04:23:17.062Z,97320.13
2023-01-17T04:26:03.883Z,97322.47
2023-01-17T04:28:47.605Z,97327.09
2023-01-17T04:31:28.842Z,97322.16
2023-01-17T04:34:15.285Z,97330.34
2023-01-17T04:36:53.651Z,97329.78
2023-01-17T04:39:31.296Z,97322.16
2023-01-17T04:42:15.461Z,97325.00
2023-01-17T04:44:59.036Z,97329.44
2023-01-17T04:47:50.213Z,97327.94
2023-01-17T04:50:28.853Z,97323.28
2023-01-17T04:53:14.693Z,97331.06
2023-01-17T04:56:06.689Z,97328.63
2023-01-17T04:58:42.945Z,97334.16
2023-01-17T05:01:23.353Z,97329.53
2023-01-17T05:04:05.114Z,97330.25
2023-01-17T05:06:38.149Z,97326.38
2023-01-17T05:09:13.001Z,97324.50
2023-01-17T05:11:56.218Z,97326.53
2023-01-17T05:14:42.435Z,97332.44
2023-01-17T05:17:22.766Z,97333.19
2023-01-17T05:20:09.829Z,97333.59
2023-01-17T05:22:47.620Z,97336.50
2023-01-17T05:25:22.823Z,97332.63
2023-01-17T05:28:04.032Z,97337.56
2023-01-17T05:30:38.355Z,97330.19
2023-01-17T05:33:09.520Z,97336.69
2023-01-17T05:35:52.460Z,97336.50
2023-01-17T05:38:30.724Z,97335.69
2023-01-17T05:41:08.844Z,97335.63
2023-01-17T05:43:46.465Z,97336.03
2023-01-17T05:46:18.120Z,97335.63
2023-01-17T05:48:53.275Z,97341.28
2023-01-17T05:51:33.577Z,97338.97
2023-01-17T05:54:12.710Z,97351.84
2023-01-17T05:56:56.129Z,97346.56
2023-01-17T05:59:37.419Z,97348.81
2023-01-17T06:02:15.948Z,97357.44
2023-01-17T06:04:52.219Z,97360.09
2023-01-17T06:07:38.873Z,97362.47
2023-01-17T06:10:14.414Z,97370.75
2023-01-17T06:13:12.373Z,97374.47
2023-01-17T06:15:51.201Z,97370.44
2023-01-17T06:18:42.978Z,97371.22
2023-01-17T06:21:26.732Z,97382.66
2023-01-17T06:23:57.996Z,97384.22
2023-01-17T06:26:37.882Z,97386.81
2023-01-17T06:29:13.810Z,97394.59
2023-01-17T06:32:02.939Z,97391.19
2023-01-17T06:34:38.431Z,97387.59
2023-01-17T06:37:24.376Z,97393.63
2023-01-17T06:40:05.011Z,97382.50
2023-01-17T06:42:42.390Z,97387.28
2023-01-17T06:45:22.519Z,97387.44
2023-01-17T06:48:06.214Z,97386.63
2023-01-17T06:53:44.839Z,97403.25
2023-01-17T06:56:25.045Z,97411.88
2023-01-17T06:59:05.872Z,97417.44
2023-01-17T07:01:46.187Z,97423.88
2023-01-17T07:04:24.272Z,97433.13
2023-01-17T07:06:59.032Z,97426.88
2023-01-17T07:09:42.288Z,97435.78
2023-01-17T07:12:23.243Z,97436.34
2023-01-17T07:15:03.709Z,97441.94
2023-01-17T07:17:46.305Z,97445.34
2023-01-17T07:20:21.605Z,97453.03
2023-01-17T07:23:06.772Z,97454.94
2023-01-17T07:25:44.913Z,97457.88
2023-01-17T07:28:22.835Z,97471.06
2023-01-17T07:31:07.018Z,97465.31
2023-01-17T07:33:47.791Z,97476.81
2023-01-17T07:36:22.871Z,97469.38
2023-01-17T07:39:00.998Z,97478.88
2023-01-17T07:41:33.130Z,97479.78
2023-01-17T07:44:24.861Z,97491.78
2023-01-17T07:47:02.616Z,97490.72
2023-01-17T07:49:40.822Z,97501.50
2023-01-17T07:52:13.113Z,97512.19
2023-01-17T07:54:53.746Z,97517.34
2023-01-17T07:57:42.499Z,97520.97
2023-01-17T08:00:21.103Z,97525.91
2023-01-17T08:03:06.823Z,97535.78
2023-01-17T08:05:55.708Z,97545.22
2023-01-17T08:08:42.072Z,97548.91
2023-01-17T08:11:26.074Z,97544.28
2023-01-17T08:14:19.375Z,97549.38
2023-01-17T08:17:10.078Z,97561.03
2023-01-17T08:19:52.247Z,97561.03
2023-01-17T08:22:41.215Z,97562.19
2023-01-17T08:25:22.154Z,97566.97
2023-01-17T08:28:00.300Z,97569.19
2023-01-17T08:30:44.053Z,97570.19
2023-01-17T08:33:28.834Z,97581.59
2023-01-17T08:36:12.738Z,97596.59
2023-01-17T08:38:51.055Z,97592.63
2023-01-17T08:41:37.644Z,97592.28
2023-01-17T08:44:09.739Z,97595.66
2023-01-17T08:46:46.983Z,97593.56
2023-01-17T08:49:28.826Z,97602.59
2023-01-17T08:52:07.728Z,97598.75
2023-01-17T08:54:49.056Z,97609.16
2023-01-17T08:57:29.212Z,97607.97
2023-01-17T09:00:04.846Z,97611.25
2023-01-17T09:02:43.735Z,97621.47
2023-01-17T09:05:24.925Z,97625.22
2023-01-17T09:08:08.736Z,97609.84
2023-01-17T09:10:49.855Z,97609.47
2023-01-17T09:13:36.602Z,97616.69
2023-01-17T09:16:21.967Z,97621.66
2023-01-17T09:19:04.147Z,97609.69
2023-01-17T09:21:52.077Z,97618.03
2023-01-17T09:24:27.109Z,97623.28
2023-01-17T09:27:08.156Z,97609.09
2023-01-17T09:29:46.557Z,97628.41
2023-01-17T09:32:35.400Z,97631.88
2023-01-17T09:35:13.847Z,97639.53
2023-01-17T09:37:49.021Z,97641.19
2023-01-17T09:40:28.662Z,97651.72
2023-01-17T09:43:33.535Z,97654.50
2023-01-17T09:46:39.032Z,97653.03
2023-01-17T09:49:31.879Z,97654.66
2023-01-17T09:52:14.491Z,97666.97
2023-01-17T09:54:54.840Z,97668.44
2023-01-17T09:58:02.147Z,97677.91
2023-01-17T10:00:47.954Z,97680.84
2023-01-17T10:03:57.323Z,97688.72
2023-01-17T10:06:54.696Z,97687.19
2023-01-17T10:09:45.709Z,97691.34
2023-01-17T10:12:39.148Z,97683.81
2023-01-17T10:15:45.904Z,97691.69
2023-01-17T10:18:48.858Z,97685.94
2023-01-17T10:21:35.709Z,97693.03
2023-01-17T10:24:39.094Z,97684.22
2023-01-17T10:27:32.967Z,97696.53
2023-01-17T10:30:48.993Z,97707.50
2023-01-17T10:33:58.505Z,97709.13
2023-01-17T10:36:43.333Z,97714.00
2023-01-17T10:39:32.107Z,97718.50
2023-01-17T10:42:54.093Z,97699.16
2023-01-17T10:45:43.917Z,97704.44
2023-01-17T10:48:42.407Z,97693.38
2023-01-17T10:51:43.821Z,97686.63
2023-01-17T10:54:30.263Z,97678.72
2023-01-17T10:57:16.648Z,97677.06
2023-01-17T11:00:00.407Z,97672.22
2023-01-17T11:02:43.236Z,97666.41
2023-01-17T11:05:40.774Z,97652.00
2023-01-17T11:08:21.817Z,97641.41
2023-01-17T11:11:03.775Z,97653.88
2023-01-17T11:13:41.917Z,97646.28
2023-01-17T11:16:32.995Z,97636.47
2023-01-17T11:19:20.450Z,97639.03
2023-01-17T11:22:05.142Z,97640.56
2023-01-17T11:24:51.293Z,97646.13
2023-01-17T11:27:41.011Z,97639.38
2023-01-17T11:30:26.310Z,97628.13
2023-01-17T11:33:11.857Z,97631.16
2023-01-17T11:35:58.772Z,97631.34
2023-01-17T11:38:39.544Z,97637.28
2023-01-17T11:41:26.015Z,97630.88
2023-01-17T11:44:03.927Z,97630.69
2023-01-17T11:46:39.072Z,97624.00
2023-01-17T11:49:37.935Z,97625.78
2023-01-17T11:52:39.257Z,97612.75
2023-01-17T11:55:23.204Z,97602.75
2023-01-17T11:58:05.624Z,97601.94
2023-01-17T12:00:57.330Z,97596.44
2023-01-17T12:03:48.216Z,97592.38
2023-01-17T12:06:57.104Z,97609.88
2023-01-17T12:09:48.451Z,97619.78
2023-01-17T12:12:54.163Z,97628.06
2023-01-17T12:15:35.490Z,97639.44
2023-01-17T12:18:33.887Z,97641.34
2023-01-17T12:21:25.361Z,97644.88
2023-01-17T12:24:45.301Z,97658.13
2023-01-17T12:28:08.500Z,97658.56
2023-01-17T12:31:08.978Z,97660.00
2023-01-17T12:33:58.306Z,97659.72
2023-01-17T12:36:59.976Z,97658.34
2023-01-17T12:39:46.771Z,97662.47
2023-01-17T12:42:35.437Z,97673.06
2023-01-17T12:46:03.276Z,97672.66
2023-01-17T12:48:47.591Z,97672.25
2023-01-17T12:51:40.747Z,97669.22
2023-01-17T12:54:31.680Z,97671.09
2023-01-17T12:57:14.006Z,97665.16
2023-01-17T13:00:07.864Z,97661.16
2023-01-17T13:03:11.010Z,97660.13
2023-01-17T13:05:53.560Z,97655.69
2023-01-17T13:08:39.109Z,97662.53
2023-01-17T13:11:46.679Z,97665.22
2023-01-17T13:14:24.672Z,97666.16
2023-01-17T13:17:56.316Z,97661.22
2023-01-17T13:20:59.038Z,97659.28
2023-01-17T13:24:06.622Z,97658.59
2023-01-17T13:26:56.986Z,97657.44
2023-01-17T13:29:59.270Z,97651.72
2023-01-17T13:32:46.249Z,97652.75
2023-01-17T13:35:37.231Z,97644.56
2023-01-17T13:38:25.327Z,97652.06
2023-01-17T13:41:19.843Z,97657.34
2023-01-17T13:44:14.307Z,97668.34
2023-01-17T13:47:04.272Z,97676.09
2023-01-17T13:49:59.887Z,97682.34
2023-01-17T13:52:41.756Z,97677.91
2023-01-17T13:55:47.175Z,97667.69
2023-01-17T13:59:12.131Z,97651.22
2023-01-17T14:02:04.841Z,97646.13
2023-01-17T14:05:07.161Z,97640.53
2023-01-17T14:07:57.873Z,97637.28
2023-01-17T14:10:49.532Z,97630.63
2023-01-17T14:13:38.407Z,97625.09
2023-01-17T14:16:29.139Z,97618.13
2023-01-17T14:19:07.919Z,97602.31
2023-01-17T14:21:40.205Z,97591.44
2023-01-17T14:24:23.775Z,97590.38
2023-01-17T14:27:15.853Z,97581.94
2023-01-17T14:30:00.283Z,97575.34
2023-01-17T14:32:39.689Z,97567.06
2023-01-17T14:35:35.430Z,97565.69
2023-01-17T14:38:31.647Z,97552.53
2023-01-17T14:41:36.437Z,97557.72
2023-01-17T14:44:20.215Z,97541.41
2023-01-17T14:46:59.864Z,97530.31
2023-01-17T14:49:35.607Z,97519.28
2023-01-17T14:52:19.216Z,97514.72
2023-01-17T14:55:17.619Z,97510.00
2023-01-17T14:57:58.529Z,97516.53
2023-01-17T15:00:43.402Z,97527.41
2023-01-17T15:03:22.246Z,97521.88
2023-01-17T15:06:04.856Z,97512.31
2023-01-17T15:08:40.391Z,97507.09
2023-01-17T15:11:38.835Z,97517.44
2023-01-17T15:14:23.034Z,97511.16
2023-01-17T15:17:17.896Z,97514.09
2023-01-17T15:20:14.060Z,97514.91
2023-01-17T15:22:54.749Z,97507.94
2023-01-17T15:25:36.521Z,97512.06
2023-01-17T15:28:18.716Z,97506.78
2023-01-17T15:31:24.190Z,97505.63
2023-01-17T15:34:10.964Z,97495.00
2023-01-17T15:36:52.048Z,97492.56
2023-01-17T15:39:31.201Z,97489.75
2023-01-17T15:42:21.587Z,97499.00
2023-01-17T15:45:05.210Z,97495.81
2023-01-17T15:47:44.398Z,97495.50
2023-01-17T15:50:32.904Z,97481.59
2023-01-17T15:53:26.155Z,97487.47
2023-01-17T15:56:24.048Z,97475.59
2023-01-17T15:59:48.851Z,97474.47
2023-01-17T16:02:49.030Z,97467.34
2023-01-17T16:05:30.991Z,97481.78
2023-01-17T16:08:23.986Z,97476.09
2023-01-17T16:11:06.251Z,97478.78
2023-01-17T16:13:47.817Z,97470.47
2023-01-17T16:16:29.952Z,97469.03
2023-01-17T16:19:06.237Z,97474.22
2023-01-17T16:21:53.052Z,97472.28
2023-01-17T16:24:28.814Z,97462.06
2023-01-17T16:27:20.996Z,97459.69
2023-01-17T16:29:56.605Z,97452.72
2023-01-17T16:32:32.413Z,97456.19
2023-01-17T16:35:19.696Z,97451.91
2023-01-17T16:37:59.508Z,97453.88
2023-01-17T16:40:40.612Z,97452.22
2023-01-17T16:43:19.880Z,97446.28
2023-01-17T16:46:03.539Z,97435.03
2023-01-17T16:48:48.809Z,97445.81
2023-01-17T16:51:37.410Z,97434.78
2023-01-17T16:54:13.078Z,97436.63
2023-01-17T16:56:51.239Z,97433.72
2023-01-17T16:59:45.914Z,97439.41
2023-01-17T17:02:35.657Z,97436.56
2023-01-17T17:05:19.827Z,97433.88
2023-01-17T17:07:57.680Z,97435.41
2023-01-17T17:10:44.604Z,97429.56
2023-01-17T17:13:31.273Z,97425.75
2023-01-17T17:16:13.896Z,97420.66
2023-01-17T17:18:56.777Z,97421.78
2023-01-17T17:21:45.491Z,97418.13
2023-01-17T17:24:21.078Z,97422.31
2023-01-17T17:26:58.679Z,97414.38
2023-01-17T17:29:36.264Z,97406.44
2023-01-17T17:32:23.508Z,97405.28
2023-01-17T17:35:00.850Z,97396.66
2023-01-17T17:37:38.015Z,97390.19
2023-01-17T17:40:21.222Z,97380.44
2023-01-17T17:43:07.561Z,97375.19
2023-01-17T17:45:48.578Z,97372.50
2023-01-17T17:48:26.195Z,97365.03
2023-01-17T17:51:01.545Z,97361.47
2023-01-17T17:53:36.752Z,97345.91
2023-01-17T17:56:10.859Z,97346.16
2023-01-17T17:58:51.799Z,97326.19
2023-01-17T18:01:26.221Z,97318.59
2023-01-17T18:04:07.580Z,97317.59
2023-01-17T18:06:50.991Z,97316.22
2023-01-17T18:09:29.706Z,97313.41
2023-01-17T18:12:11.479Z,97310.94
2023-01-17T18:14:49.501Z,97299.94
2023-01-17T18:17:33.757Z,97293.78
2023-01-17T18:20:11.506Z,97283.97
2023-01-17T18:22:57.177Z,97279.03
2023-01-17T18:25:36.386Z,97273.75
2023-01-17T18:28:11.995Z,97262.78
2023-01-17T18:30:57.261Z,97259.56
2023-01-17T18:33:34.787Z,97254.94
2023-01-17T18:36:24.846Z,97253.78
2023-01-17T18:39:10.277Z,97255.28
2023-01-17T18:41:49.205Z,97251.22
2023-01-17T18:44:33.990Z,97249.16
2023-01-17T18:47:15.216Z,97243.44
2023-01-17T18:50:10.011Z,97243.44
2023-01-17T18:52:51.119Z,97239.78
2023-01-17T18:55:26.297Z,97222.84
2023-01-17T18:58:14.680Z,97226.81
2023-01-17T19:00:58.602Z,97227.22
2023-01-17T19:03:42.215Z,97227.06
2023-01-17T19:06:21.947Z,97208.81
2023-01-17T19:09:03.786Z,97209.38
2023-01-17T19:11:43.107Z,97194.31
2023-01-17T19:14:20.881Z,97196.00
2023-01-17T19:17:01.312Z,97176.00
2023-01-17T19:19:51.295Z,97163.34
2023-01-17T19:22:33.485Z,97169.69
2023-01-17T19:25:08.869Z,97170.09
2023-01-17T19:27:58.273Z,97166.28
2023-01-17T19:30:42.287Z,97148.38
2023-01-17T19:33:18.008Z,97140.53
2023-01-17T19:36:06.723Z,97138.88
2023-01-17T19:39:03.860Z,97130.13
2023-01-17T19:41:54.347Z,97128.13
2023-01-17T19:44:52.031Z,97126.34
2023-01-17T19:47:49.044Z,97122.22
2023-01-17T19:50:29.134Z,97138.06
2023-01-17T19:53:13.170Z,97118.41
2023-01-17T19:55:54.829Z,97098.41
2023-01-17T19:58:38.141Z,97082.78
2023-01-17T20:01:28.092Z,97059.56
2023-01-17T20:04:09.924Z,97049.34
2023-01-17T20:06:56.824Z,97046.44
2023-01-17T20:09:46.705Z,97049.25
2023-01-17T20:12:33.605Z,97033.06
2023-01-17T20:15:12.705Z,97024.47
2023-01-17T20:18:02.748Z,97024.22
2023-01-17T20:20:56.323Z,97030.13
2023-01-17T20:23:50.715Z,97021.97
2023-01-17T20:26:44.811Z,97023.03
2023-01-17T20:29:31.556Z,97012.38
2023-01-17T20:32:17.336Z,97015.75
2023-01-17T20:35:09.683Z,97021.47
2023-01-17T20:37:57.222Z,97020.50
2023-01-17T20:40:35.108Z,97021.09
2023-01-17T20:43:28.743Z,97008.50
2023-01-17T20:46:08.953Z,97007.03
2023-01-17T20:49:01.223Z,97002.72
2023-01-17T20:51:42.041Z,96990.28
2023-01-17T20:54:15.583Z,96994.53
2023-01-17T20:57:03.143Z,96995.03
2023-01-17T20:59:51.887Z,96997.47
2023-01-17T21:02:32.840Z,96977.13
2023-01-17T21:05:13.815Z,96966.13
2023-01-17T21:08:03.937Z,96970.84
2023-01-17T21:10:50.751Z,96976.34
2023-01-17T21:13:41.747Z,96971.16
2023-01-17T21:16:31.958Z,96968.84
2023-01-17T21:19:27.686Z,96964.91
2023-01-17T21:22:19.020Z,96951.69
2023-01-17T21:25:03.353Z,96936.06
2023-01-17T21:27:47.152Z,96928.91
2023-01-17T21:30:19.019Z,96909.81
2023-01-17T21:33:14.358Z,96913.34
2023-01-17T21:35:55.502Z,96922.34
2023-01-17T21:38:36.183Z,96927.84
2023-01-17T21:41:22.466Z,96905.31
2023-01-17T21:44:27.442Z,96886.06
2023-01-17T21:47:03.005Z,96870.47
2023-01-17T21:49:54.318Z,96843.69
2023-01-17T21:52:45.263Z,96825.50
2023-01-17T21:55:40.006Z,96817.69
2023-01-17T21:58:38.674Z,96832.56
2023-01-17T22:01:29.508Z,96832.97
2023-01-17T22:04:16.114Z,96846.88
2023-01-17T22:06:55.591Z,96858.84
2023-01-17T22:09:49.858Z,96856.88
2023-01-17T22:12:46.061Z,96850.59
2023-01-17T22:15:34.083Z,96846.31
2023-01-17T22:18:22.776Z,96851.22
2023-01-17T22:21:14.618Z,96853.91
2023-01-17T22:24:01.983Z,96854.22
2023-01-17T22:26:48.190Z,96827.72
2023-01-17T22:29:33.550Z,96813.81
2023-01-17T22:32:15.799Z,96818.81
2023-01-17T22:34:58.770Z,96822.69
2023-01-17T22:37:43.799Z,96820.81
2023-01-17T22:40:30.029Z,96808.41
2023-01-17T22:43:11.739Z,96820.44
2023-01-17T22:46:09.427Z,96825.34
2023-01-17T22:48:58.723Z,96827.16
2023-01-17T22:51:35.466Z,96826.25
2023-01-17T22:54:28.313Z,96831.25
2023-01-17T22:57:09.124Z,96838.69
2023-01-17T22:59:57.606Z,96848.72
2023-01-17T23:02:42.764Z,96842.59
2023-01-17T23:05:22.805Z,96843.97
2023-01-17T23:08:20.808Z,96856.50
2023-01-17T23:11:16.937Z,96850.41
2023-01-17T23:14:08.016Z,96833.22
2023-01-17T23:17:10.630Z,96827.13
2023-01-17T23:19:59.987Z,96827.41
2023-01-17T23:22:44.243Z,96832.00
2023-01-17T23:25:38.465Z,96834.00
2023-01-17T23:28:24.539Z,96841.94
2023-01-17T23:31:11.841Z,96846.47
2023-01-17T23:34:00.637Z,96853.25
2023-01-17T23:36:47.301Z,96836.59
2023-01-17T23:39:35.915Z,96849.41
2023-01-17T23:42:34.769Z,96858.56
2023-01-17T23:45:14.188Z,96864.38
2023-01-17T23:48:06.067Z,96869.72
2023-01-17T23:50:46.332Z,96877.97
2023-01-17T23:53:39.703Z,96879.28
2023-01-17T23:56:36.362Z,96865.84
2023-01-17T23:59:22.693Z,96855.66
